sensor_id;sensor_type;location;lat;lon;timestamp;P1;durP1;ratioP1;P2;durP2;ratioP2
51800;SDS011;37855;53.204;6.568;2023-06-22T00:00:55;13.15;;;8.27;;
51800;SDS011;37855;53.204;6.568;2023-06-22T00:03:21;16.50;;;9.75;;
51800;SDS011;37855;53.204;6.568;2023-06-22T00:05:51;15.52;;;10.60;;
51800;SDS011;37855;53.204;6.568;2023-06-22T00:08:18;17.30;;;9.95;;
51800;SDS011;37855;53.204;6.568;2023-06-22T00:10:44;14.20;;;9.17;;
51800;SDS011;37855;53.204;6.568;2023-06-22T00:13:11;17.98;;;11.10;;
51800;SDS011;37855;53.204;6.568;2023-06-22T00:15:39;19.50;;;14.05;;
51800;SDS011;37855;53.204;6.568;2023-06-22T00:18:06;18.13;;;11.23;;
51800;SDS011;37855;53.204;6.568;2023-06-22T00:20:33;19.23;;;12.93;;
51800;SDS011;37855;53.204;6.568;2023-06-22T00:23:01;20.57;;;12.70;;
51800;SDS011;37855;53.204;6.568;2023-06-22T00:25:32;19.60;;;12.57;;
51800;SDS011;37855;53.204;6.568;2023-06-22T00:27:59;14.77;;;9.95;;
51800;SDS011;37855;53.204;6.568;2023-06-22T00:30:24;15.07;;;9.03;;
51800;SDS011;37855;53.204;6.568;2023-06-22T00:32:50;17.27;;;10.77;;
51800;SDS011;37855;53.204;6.568;2023-06-22T00:35:16;20.77;;;12.43;;
51800;SDS011;37855;53.204;6.568;2023-06-22T00:37:41;15.18;;;9.50;;
51800;SDS011;37855;53.204;6.568;2023-06-22T00:40:08;15.13;;;9.27;;
51800;SDS011;37855;53.204;6.568;2023-06-22T00:42:36;14.80;;;9.55;;
51800;SDS011;37855;53.204;6.568;2023-06-22T00:45:06;17.40;;;11.48;;
51800;SDS011;37855;53.204;6.568;2023-06-22T00:47:32;18.77;;;13.85;;
51800;SDS011;37855;53.204;6.568;2023-06-22T00:50:00;18.53;;;12.40;;
51800;SDS011;37855;53.204;6.568;2023-06-22T00:52:28;21.92;;;13.80;;
51800;SDS011;37855;53.204;6.568;2023-06-22T00:54:58;16.70;;;11.13;;
51800;SDS011;37855;53.204;6.568;2023-06-22T00:57:27;22.95;;;14.05;;
51800;SDS011;37855;53.204;6.568;2023-06-22T00:59:53;18.10;;;12.10;;
51800;SDS011;37855;53.204;6.568;2023-06-22T01:02:19;18.40;;;11.57;;
51800;SDS011;37855;53.204;6.568;2023-06-22T01:04:45;19.08;;;12.27;;
51800;SDS011;37855;53.204;6.568;2023-06-22T01:07:14;19.03;;;11.40;;
51800;SDS011;37855;53.204;6.568;2023-06-22T01:12:34;21.67;;;14.18;;
51800;SDS011;37855;53.204;6.568;2023-06-22T01:15:09;26.98;;;18.55;;
51800;SDS011;37855;53.204;6.568;2023-06-22T01:17:39;25.23;;;17.27;;
51800;SDS011;37855;53.204;6.568;2023-06-22T01:20:11;28.40;;;19.33;;
51800;SDS011;37855;53.204;6.568;2023-06-22T01:22:46;25.63;;;17.48;;
51800;SDS011;37855;53.204;6.568;2023-06-22T01:25:46;28.15;;;19.08;;
51800;SDS011;37855;53.204;6.568;2023-06-22T01:30:51;23.63;;;16.60;;
51800;SDS011;37855;53.204;6.568;2023-06-22T01:33:28;26.60;;;18.90;;
51800;SDS011;37855;53.204;6.568;2023-06-22T01:35:56;29.88;;;18.23;;
51800;SDS011;37855;53.204;6.568;2023-06-22T01:38:22;17.60;;;12.40;;
51800;SDS011;37855;53.204;6.568;2023-06-22T01:40:49;20.58;;;13.70;;
51800;SDS011;37855;53.204;6.568;2023-06-22T01:43:16;20.65;;;13.20;;
51800;SDS011;37855;53.204;6.568;2023-06-22T01:45:42;20.97;;;13.30;;
51800;SDS011;37855;53.204;6.568;2023-06-22T01:48:08;26.60;;;16.88;;
51800;SDS011;37855;53.204;6.568;2023-06-22T01:50:34;28.20;;;18.00;;
51800;SDS011;37855;53.204;6.568;2023-06-22T01:53:00;27.35;;;18.30;;
51800;SDS011;37855;53.204;6.568;2023-06-22T01:55:26;25.37;;;16.70;;
51800;SDS011;37855;53.204;6.568;2023-06-22T01:57:52;20.52;;;13.23;;
51800;SDS011;37855;53.204;6.568;2023-06-22T02:00:22;25.60;;;16.60;;
51800;SDS011;37855;53.204;6.568;2023-06-22T02:02:53;22.10;;;14.48;;
51800;SDS011;37855;53.204;6.568;2023-06-22T02:05:31;19.30;;;11.98;;
51800;SDS011;37855;53.204;6.568;2023-06-22T02:08:11;20.52;;;13.27;;
51800;SDS011;37855;53.204;6.568;2023-06-22T02:10:44;22.52;;;15.85;;
51800;SDS011;37855;53.204;6.568;2023-06-22T02:13:11;21.90;;;15.53;;
51800;SDS011;37855;53.204;6.568;2023-06-22T02:15:39;22.35;;;13.75;;
51800;SDS011;37855;53.204;6.568;2023-06-22T02:18:05;23.65;;;15.68;;
51800;SDS011;37855;53.204;6.568;2023-06-22T02:20:30;20.13;;;13.65;;
51800;SDS011;37855;53.204;6.568;2023-06-22T02:22:56;24.20;;;16.30;;
51800;SDS011;37855;53.204;6.568;2023-06-22T02:25:22;21.08;;;14.63;;
51800;SDS011;37855;53.204;6.568;2023-06-22T02:27:47;21.97;;;15.27;;
51800;SDS011;37855;53.204;6.568;2023-06-22T02:30:13;25.90;;;17.53;;
51800;SDS011;37855;53.204;6.568;2023-06-22T02:32:41;22.87;;;15.43;;
51800;SDS011;37855;53.204;6.568;2023-06-22T02:35:07;21.15;;;13.45;;
51800;SDS011;37855;53.204;6.568;2023-06-22T02:37:37;25.42;;;17.90;;
51800;SDS011;37855;53.204;6.568;2023-06-22T02:40:04;28.40;;;19.38;;
51800;SDS011;37855;53.204;6.568;2023-06-22T02:42:33;25.20;;;17.60;;
51800;SDS011;37855;53.204;6.568;2023-06-22T02:44:58;26.00;;;18.10;;
51800;SDS011;37855;53.204;6.568;2023-06-22T02:47:24;19.63;;;13.83;;
51800;SDS011;37855;53.204;6.568;2023-06-22T02:49:52;22.27;;;14.57;;
51800;SDS011;37855;53.204;6.568;2023-06-22T02:52:18;23.20;;;15.80;;
51800;SDS011;37855;53.204;6.568;2023-06-22T02:54:45;25.42;;;18.30;;
51800;SDS011;37855;53.204;6.568;2023-06-22T02:57:11;20.47;;;12.93;;
51800;SDS011;37855;53.204;6.568;2023-06-22T02:59:39;17.80;;;12.32;;
51800;SDS011;37855;53.204;6.568;2023-06-22T03:02:07;21.13;;;15.75;;
51800;SDS011;37855;53.204;6.568;2023-06-22T03:04:34;23.37;;;15.57;;
51800;SDS011;37855;53.204;6.568;2023-06-22T03:07:00;17.27;;;12.73;;
51800;SDS011;37855;53.204;6.568;2023-06-22T03:09:26;20.73;;;13.13;;
51800;SDS011;37855;53.204;6.568;2023-06-22T03:11:55;28.83;;;19.98;;
51800;SDS011;37855;53.204;6.568;2023-06-22T03:14:21;16.27;;;12.07;;
51800;SDS011;37855;53.204;6.568;2023-06-22T03:16:47;18.83;;;13.05;;
51800;SDS011;37855;53.204;6.568;2023-06-22T03:19:13;23.20;;;15.73;;
51800;SDS011;37855;53.204;6.568;2023-06-22T03:21:39;18.58;;;12.32;;
51800;SDS011;37855;53.204;6.568;2023-06-22T03:24:05;30.83;;;20.45;;
51800;SDS011;37855;53.204;6.568;2023-06-22T03:26:31;22.23;;;16.13;;
51800;SDS011;37855;53.204;6.568;2023-06-22T03:28:57;26.95;;;18.60;;
51800;SDS011;37855;53.204;6.568;2023-06-22T03:31:23;24.20;;;16.60;;
51800;SDS011;37855;53.204;6.568;2023-06-22T03:33:49;25.13;;;18.13;;
51800;SDS011;37855;53.204;6.568;2023-06-22T03:36:15;27.55;;;19.20;;
51800;SDS011;37855;53.204;6.568;2023-06-22T03:38:47;29.00;;;21.45;;
51800;SDS011;37855;53.204;6.568;2023-06-22T03:41:14;28.70;;;20.33;;
51800;SDS011;37855;53.204;6.568;2023-06-22T03:43:39;29.70;;;20.87;;
51800;SDS011;37855;53.204;6.568;2023-06-22T03:46:05;25.25;;;19.85;;
51800;SDS011;37855;53.204;6.568;2023-06-22T03:48:31;34.85;;;20.55;;
51800;SDS011;37855;53.204;6.568;2023-06-22T03:50:58;28.60;;;20.87;;
51800;SDS011;37855;53.204;6.568;2023-06-22T03:53:28;25.33;;;18.25;;
51800;SDS011;37855;53.204;6.568;2023-06-22T03:55:54;22.92;;;16.63;;
51800;SDS011;37855;53.204;6.568;2023-06-22T03:58:20;27.50;;;18.60;;
51800;SDS011;37855;53.204;6.568;2023-06-22T04:00:47;26.73;;;18.53;;
51800;SDS011;37855;53.204;6.568;2023-06-22T04:03:13;30.83;;;20.60;;
51800;SDS011;37855;53.204;6.568;2023-06-22T04:05:40;33.75;;;23.02;;
51800;SDS011;37855;53.204;6.568;2023-06-22T04:08:06;26.73;;;19.00;;
51800;SDS011;37855;53.204;6.568;2023-06-22T04:10:32;29.98;;;21.38;;
51800;SDS011;37855;53.204;6.568;2023-06-22T04:12:58;27.30;;;17.63;;
51800;SDS011;37855;53.204;6.568;2023-06-22T04:15:25;33.95;;;23.73;;
51800;SDS011;37855;53.204;6.568;2023-06-22T04:17:51;29.17;;;20.02;;
51800;SDS011;37855;53.204;6.568;2023-06-22T04:20:17;26.90;;;16.93;;
51800;SDS011;37855;53.204;6.568;2023-06-22T04:22:42;29.70;;;21.17;;
51800;SDS011;37855;53.204;6.568;2023-06-22T04:25:08;36.50;;;25.33;;
51800;SDS011;37855;53.204;6.568;2023-06-22T04:27:34;33.35;;;22.58;;
51800;SDS011;37855;53.204;6.568;2023-06-22T04:30:06;32.65;;;20.80;;
51800;SDS011;37855;53.204;6.568;2023-06-22T04:32:33;25.60;;;17.38;;
51800;SDS011;37855;53.204;6.568;2023-06-22T04:35:01;32.80;;;23.70;;
51800;SDS011;37855;53.204;6.568;2023-06-22T04:37:31;34.58;;;23.10;;
51800;SDS011;37855;53.204;6.568;2023-06-22T04:39:57;35.38;;;23.55;;
51800;SDS011;37855;53.204;6.568;2023-06-22T04:42:24;32.50;;;22.27;;
51800;SDS011;37855;53.204;6.568;2023-06-22T04:44:53;34.60;;;23.07;;
51800;SDS011;37855;53.204;6.568;2023-06-22T04:47:20;33.70;;;22.83;;
51800;SDS011;37855;53.204;6.568;2023-06-22T04:49:46;38.88;;;26.52;;
51800;SDS011;37855;53.204;6.568;2023-06-22T04:52:12;40.00;;;26.40;;
51800;SDS011;37855;53.204;6.568;2023-06-22T04:54:45;38.33;;;26.87;;
51800;SDS011;37855;53.204;6.568;2023-06-22T04:57:13;33.97;;;22.30;;
51800;SDS011;37855;53.204;6.568;2023-06-22T04:59:40;28.17;;;18.73;;
51800;SDS011;37855;53.204;6.568;2023-06-22T05:02:07;39.25;;;25.90;;
51800;SDS011;37855;53.204;6.568;2023-06-22T05:04:34;33.97;;;22.77;;
51800;SDS011;37855;53.204;6.568;2023-06-22T05:07:06;33.87;;;23.23;;
51800;SDS011;37855;53.204;6.568;2023-06-22T05:09:32;36.67;;;23.98;;
51800;SDS011;37855;53.204;6.568;2023-06-22T05:11:58;36.67;;;23.08;;
51800;SDS011;37855;53.204;6.568;2023-06-22T05:14:27;30.17;;;19.30;;
51800;SDS011;37855;53.204;6.568;2023-06-22T05:16:52;34.97;;;23.90;;
51800;SDS011;37855;53.204;6.568;2023-06-22T05:19:18;25.60;;;17.88;;
51800;SDS011;37855;53.204;6.568;2023-06-22T05:21:46;22.65;;;14.57;;
51800;SDS011;37855;53.204;6.568;2023-06-22T05:24:12;24.00;;;16.53;;
51800;SDS011;37855;53.204;6.568;2023-06-22T05:26:38;25.70;;;18.90;;
51800;SDS011;37855;53.204;6.568;2023-06-22T05:29:03;29.65;;;20.10;;
51800;SDS011;37855;53.204;6.568;2023-06-22T05:31:29;30.48;;;20.55;;
51800;SDS011;37855;53.204;6.568;2023-06-22T05:33:55;29.90;;;21.50;;
51800;SDS011;37855;53.204;6.568;2023-06-22T05:36:21;28.25;;;20.48;;
51800;SDS011;37855;53.204;6.568;2023-06-22T05:38:50;28.13;;;21.15;;
51800;SDS011;37855;53.204;6.568;2023-06-22T05:41:17;27.98;;;20.10;;
51800;SDS011;37855;53.204;6.568;2023-06-22T05:43:43;30.23;;;20.97;;
51800;SDS011;37855;53.204;6.568;2023-06-22T05:46:08;31.25;;;21.75;;
51800;SDS011;37855;53.204;6.568;2023-06-22T05:48:34;29.00;;;19.97;;
51800;SDS011;37855;53.204;6.568;2023-06-22T05:51:00;24.35;;;15.98;;
51800;SDS011;37855;53.204;6.568;2023-06-22T05:53:26;23.38;;;17.10;;
51800;SDS011;37855;53.204;6.568;2023-06-22T05:55:52;25.03;;;19.90;;
51800;SDS011;37855;53.204;6.568;2023-06-22T05:58:18;25.48;;;17.55;;
51800;SDS011;37855;53.204;6.568;2023-06-22T06:00:43;23.98;;;17.88;;
51800;SDS011;37855;53.204;6.568;2023-06-22T06:03:13;23.83;;;16.47;;
51800;SDS011;37855;53.204;6.568;2023-06-22T06:05:44;22.58;;;16.45;;
51800;SDS011;37855;53.204;6.568;2023-06-22T06:08:10;25.13;;;17.83;;
51800;SDS011;37855;53.204;6.568;2023-06-22T06:10:37;22.58;;;15.75;;
51800;SDS011;37855;53.204;6.568;2023-06-22T06:13:02;21.30;;;15.23;;
51800;SDS011;37855;53.204;6.568;2023-06-22T06:15:31;21.02;;;14.57;;
51800;SDS011;37855;53.204;6.568;2023-06-22T06:17:57;21.60;;;15.77;;
51800;SDS011;37855;53.204;6.568;2023-06-22T06:20:26;21.58;;;16.40;;
51800;SDS011;37855;53.204;6.568;2023-06-22T06:22:54;27.33;;;16.50;;
51800;SDS011;37855;53.204;6.568;2023-06-22T06:25:21;23.75;;;17.25;;
51800;SDS011;37855;53.204;6.568;2023-06-22T06:27:47;24.10;;;16.52;;
51800;SDS011;37855;53.204;6.568;2023-06-22T06:30:18;22.90;;;17.52;;
51800;SDS011;37855;53.204;6.568;2023-06-22T06:32:47;22.90;;;16.38;;
51800;SDS011;37855;53.204;6.568;2023-06-22T06:35:13;21.43;;;15.03;;
51800;SDS011;37855;53.204;6.568;2023-06-22T06:37:42;25.73;;;17.58;;
51800;SDS011;37855;53.204;6.568;2023-06-22T06:40:10;24.67;;;17.42;;
51800;SDS011;37855;53.204;6.568;2023-06-22T06:42:40;16.05;;;11.40;;
51800;SDS011;37855;53.204;6.568;2023-06-22T06:45:07;18.05;;;12.75;;
51800;SDS011;37855;53.204;6.568;2023-06-22T06:47:37;20.63;;;14.87;;
51800;SDS011;37855;53.204;6.568;2023-06-22T06:50:06;18.92;;;11.38;;
51800;SDS011;37855;53.204;6.568;2023-06-22T06:52:33;18.35;;;12.35;;
51800;SDS011;37855;53.204;6.568;2023-06-22T06:55:00;18.35;;;13.18;;
51800;SDS011;37855;53.204;6.568;2023-06-22T06:57:33;22.48;;;15.95;;
51800;SDS011;37855;53.204;6.568;2023-06-22T06:59:59;19.93;;;12.67;;
51800;SDS011;37855;53.204;6.568;2023-06-22T07:02:28;15.63;;;9.90;;
51800;SDS011;37855;53.204;6.568;2023-06-22T07:04:54;17.95;;;12.23;;
51800;SDS011;37855;53.204;6.568;2023-06-22T07:07:23;18.23;;;14.40;;
51800;SDS011;37855;53.204;6.568;2023-06-22T07:09:49;17.83;;;12.70;;
51800;SDS011;37855;53.204;6.568;2023-06-22T07:12:15;18.80;;;12.37;;
51800;SDS011;37855;53.204;6.568;2023-06-22T07:14:42;17.92;;;11.77;;
51800;SDS011;37855;53.204;6.568;2023-06-22T07:17:07;17.85;;;10.82;;
51800;SDS011;37855;53.204;6.568;2023-06-22T07:19:33;13.33;;;8.53;;
51800;SDS011;37855;53.204;6.568;2023-06-22T07:21:59;17.77;;;11.23;;
51800;SDS011;37855;53.204;6.568;2023-06-22T07:24:25;15.03;;;10.07;;
51800;SDS011;37855;53.204;6.568;2023-06-22T07:26:52;14.02;;;9.50;;
51800;SDS011;37855;53.204;6.568;2023-06-22T07:29:18;15.75;;;10.32;;
51800;SDS011;37855;53.204;6.568;2023-06-22T07:31:51;14.10;;;9.10;;
51800;SDS011;37855;53.204;6.568;2023-06-22T07:34:17;18.83;;;12.75;;
51800;SDS011;37855;53.204;6.568;2023-06-22T07:36:44;16.55;;;10.60;;
51800;SDS011;37855;53.204;6.568;2023-06-22T07:39:11;15.48;;;9.50;;
51800;SDS011;37855;53.204;6.568;2023-06-22T07:41:38;15.70;;;8.20;;
51800;SDS011;37855;53.204;6.568;2023-06-22T07:44:05;14.23;;;7.20;;
51800;SDS011;37855;53.204;6.568;2023-06-22T07:46:31;15.10;;;8.60;;
51800;SDS011;37855;53.204;6.568;2023-06-22T07:48:57;12.15;;;7.75;;
51800;SDS011;37855;53.204;6.568;2023-06-22T07:51:24;14.38;;;7.82;;
51800;SDS011;37855;53.204;6.568;2023-06-22T07:53:50;12.32;;;8.27;;
51800;SDS011;37855;53.204;6.568;2023-06-22T07:56:16;12.83;;;8.23;;
51800;SDS011;37855;53.204;6.568;2023-06-22T07:58:46;12.57;;;7.57;;
51800;SDS011;37855;53.204;6.568;2023-06-22T08:01:14;13.45;;;6.85;;
51800;SDS011;37855;53.204;6.568;2023-06-22T08:03:40;11.13;;;5.63;;
51800;SDS011;37855;53.204;6.568;2023-06-22T08:06:07;12.10;;;6.30;;
51800;SDS011;37855;53.204;6.568;2023-06-22T08:08:34;10.73;;;6.30;;
51800;SDS011;37855;53.204;6.568;2023-06-22T08:11:00;11.15;;;5.47;;
51800;SDS011;37855;53.204;6.568;2023-06-22T08:13:26;9.63;;;5.15;;
51800;SDS011;37855;53.204;6.568;2023-06-22T08:15:52;11.03;;;6.13;;
51800;SDS011;37855;53.204;6.568;2023-06-22T08:18:17;9.57;;;5.97;;
51800;SDS011;37855;53.204;6.568;2023-06-22T08:20:43;9.03;;;5.77;;
51800;SDS011;37855;53.204;6.568;2023-06-22T08:23:09;13.15;;;6.32;;
51800;SDS011;37855;53.204;6.568;2023-06-22T08:25:34;9.60;;;4.73;;
51800;SDS011;37855;53.204;6.568;2023-06-22T08:28:01;10.25;;;6.78;;
51800;SDS011;37855;53.204;6.568;2023-06-22T08:30:28;11.15;;;6.47;;
51800;SDS011;37855;53.204;6.568;2023-06-22T08:32:54;11.97;;;7.70;;
51800;SDS011;37855;53.204;6.568;2023-06-22T08:35:21;11.90;;;6.20;;
51800;SDS011;37855;53.204;6.568;2023-06-22T08:37:47;10.70;;;6.03;;
51800;SDS011;37855;53.204;6.568;2023-06-22T08:40:17;8.15;;;4.82;;
51800;SDS011;37855;53.204;6.568;2023-06-22T08:42:45;10.90;;;5.93;;
51800;SDS011;37855;53.204;6.568;2023-06-22T08:45:11;13.80;;;6.28;;
51800;SDS011;37855;53.204;6.568;2023-06-22T08:47:38;10.75;;;5.93;;
51800;SDS011;37855;53.204;6.568;2023-06-22T08:50:06;8.85;;;5.25;;
51800;SDS011;37855;53.204;6.568;2023-06-22T08:52:33;10.95;;;5.60;;
51800;SDS011;37855;53.204;6.568;2023-06-22T08:54:59;12.23;;;5.70;;
51800;SDS011;37855;53.204;6.568;2023-06-22T08:57:25;9.25;;;5.72;;
51800;SDS011;37855;53.204;6.568;2023-06-22T08:59:52;9.15;;;5.82;;
51800;SDS011;37855;53.204;6.568;2023-06-22T09:02:23;8.60;;;4.78;;
51800;SDS011;37855;53.204;6.568;2023-06-22T09:04:55;10.77;;;5.77;;
51800;SDS011;37855;53.204;6.568;2023-06-22T09:07:22;12.02;;;6.75;;
51800;SDS011;37855;53.204;6.568;2023-06-22T09:09:49;12.52;;;7.75;;
51800;SDS011;37855;53.204;6.568;2023-06-22T09:12:16;10.32;;;6.75;;
51800;SDS011;37855;53.204;6.568;2023-06-22T09:14:42;10.82;;;7.20;;
51800;SDS011;37855;53.204;6.568;2023-06-22T09:17:08;12.60;;;7.33;;
51800;SDS011;37855;53.204;6.568;2023-06-22T09:19:36;14.98;;;8.07;;
51800;SDS011;37855;53.204;6.568;2023-06-22T09:22:02;13.37;;;8.10;;
51800;SDS011;37855;53.204;6.568;2023-06-22T09:24:28;10.90;;;6.80;;
51800;SDS011;37855;53.204;6.568;2023-06-22T09:26:54;13.32;;;7.70;;
51800;SDS011;37855;53.204;6.568;2023-06-22T09:29:19;14.43;;;9.43;;
51800;SDS011;37855;53.204;6.568;2023-06-22T09:31:45;14.80;;;8.45;;
51800;SDS011;37855;53.204;6.568;2023-06-22T09:34:11;12.40;;;7.13;;
51800;SDS011;37855;53.204;6.568;2023-06-22T09:36:36;13.43;;;8.67;;
51800;SDS011;37855;53.204;6.568;2023-06-22T09:39:04;13.32;;;7.90;;
51800;SDS011;37855;53.204;6.568;2023-06-22T09:41:31;13.60;;;6.88;;
51800;SDS011;37855;53.204;6.568;2023-06-22T09:43:57;10.70;;;6.10;;
51800;SDS011;37855;53.204;6.568;2023-06-22T09:46:29;12.13;;;7.07;;
51800;SDS011;37855;53.204;6.568;2023-06-22T09:48:54;12.77;;;7.25;;
51800;SDS011;37855;53.204;6.568;2023-06-22T09:51:20;11.07;;;7.10;;
51800;SDS011;37855;53.204;6.568;2023-06-22T09:53:47;13.35;;;8.10;;
51800;SDS011;37855;53.204;6.568;2023-06-22T09:56:13;14.90;;;7.30;;
51800;SDS011;37855;53.204;6.568;2023-06-22T09:58:43;22.70;;;8.00;;
51800;SDS011;37855;53.204;6.568;2023-06-22T10:01:10;15.00;;;7.38;;
51800;SDS011;37855;53.204;6.568;2023-06-22T10:03:36;13.90;;;8.10;;
51800;SDS011;37855;53.204;6.568;2023-06-22T10:06:02;11.30;;;8.00;;
51800;SDS011;37855;53.204;6.568;2023-06-22T10:08:28;12.15;;;8.18;;
51800;SDS011;37855;53.204;6.568;2023-06-22T10:10:54;13.20;;;7.90;;
51800;SDS011;37855;53.204;6.568;2023-06-22T10:13:23;11.60;;;7.55;;
51800;SDS011;37855;53.204;6.568;2023-06-22T10:15:49;14.77;;;7.70;;
51800;SDS011;37855;53.204;6.568;2023-06-22T10:18:17;13.25;;;8.55;;
51800;SDS011;37855;53.204;6.568;2023-06-22T10:20:46;11.43;;;7.50;;
51800;SDS011;37855;53.204;6.568;2023-06-22T10:23:13;16.83;;;9.68;;
51800;SDS011;37855;53.204;6.568;2023-06-22T10:25:39;15.43;;;8.07;;
51800;SDS011;37855;53.204;6.568;2023-06-22T10:28:04;12.35;;;7.50;;
51800;SDS011;37855;53.204;6.568;2023-06-22T10:30:33;13.20;;;7.70;;
51800;SDS011;37855;53.204;6.568;2023-06-22T10:32:59;11.63;;;7.18;;
51800;SDS011;37855;53.204;6.568;2023-06-22T10:35:24;12.33;;;8.40;;
51800;SDS011;37855;53.204;6.568;2023-06-22T10:37:50;14.63;;;7.72;;
51800;SDS011;37855;53.204;6.568;2023-06-22T10:40:16;13.07;;;6.97;;
51800;SDS011;37855;53.204;6.568;2023-06-22T10:42:43;11.10;;;7.28;;
51800;SDS011;37855;53.204;6.568;2023-06-22T10:45:09;12.52;;;7.22;;
51800;SDS011;37855;53.204;6.568;2023-06-22T10:47:36;13.38;;;7.78;;
51800;SDS011;37855;53.204;6.568;2023-06-22T10:50:02;14.18;;;7.80;;
51800;SDS011;37855;53.204;6.568;2023-06-22T10:52:28;13.83;;;8.60;;
51800;SDS011;37855;53.204;6.568;2023-06-22T10:54:55;15.10;;;8.10;;
51800;SDS011;37855;53.204;6.568;2023-06-22T10:57:22;11.57;;;7.10;;
51800;SDS011;37855;53.204;6.568;2023-06-22T10:59:48;10.97;;;7.33;;
51800;SDS011;37855;53.204;6.568;2023-06-22T11:02:19;12.50;;;8.00;;
51800;SDS011;37855;53.204;6.568;2023-06-22T11:04:45;12.93;;;7.47;;
51800;SDS011;37855;53.204;6.568;2023-06-22T11:07:12;12.40;;;7.68;;
51800;SDS011;37855;53.204;6.568;2023-06-22T11:09:38;13.10;;;7.70;;
51800;SDS011;37855;53.204;6.568;2023-06-22T11:12:04;10.77;;;7.28;;
51800;SDS011;37855;53.204;6.568;2023-06-22T11:14:31;11.32;;;7.15;;
51800;SDS011;37855;53.204;6.568;2023-06-22T11:16:58;10.02;;;7.00;;
51800;SDS011;37855;53.204;6.568;2023-06-22T11:19:24;10.63;;;7.23;;
51800;SDS011;37855;53.204;6.568;2023-06-22T11:21:50;10.77;;;6.95;;
51800;SDS011;37855;53.204;6.568;2023-06-22T11:24:16;13.47;;;8.43;;
51800;SDS011;37855;53.204;6.568;2023-06-22T11:26:42;13.02;;;6.10;;
51800;SDS011;37855;53.204;6.568;2023-06-22T11:29:11;12.98;;;7.25;;
51800;SDS011;37855;53.204;6.568;2023-06-22T11:31:37;12.18;;;7.32;;
51800;SDS011;37855;53.204;6.568;2023-06-22T11:34:03;11.60;;;6.90;;
51800;SDS011;37855;53.204;6.568;2023-06-22T11:36:29;13.07;;;6.85;;
51800;SDS011;37855;53.204;6.568;2023-06-22T11:38:57;10.85;;;6.85;;
51800;SDS011;37855;53.204;6.568;2023-06-22T11:41:23;12.43;;;7.10;;
51800;SDS011;37855;53.204;6.568;2023-06-22T11:43:49;10.60;;;7.27;;
51800;SDS011;37855;53.204;6.568;2023-06-22T11:46:15;11.90;;;8.13;;
51800;SDS011;37855;53.204;6.568;2023-06-22T11:48:40;11.53;;;6.70;;
51800;SDS011;37855;53.204;6.568;2023-06-22T11:51:06;10.13;;;6.10;;
51800;SDS011;37855;53.204;6.568;2023-06-22T11:53:34;12.13;;;7.78;;
51800;SDS011;37855;53.204;6.568;2023-06-22T11:56:02;11.07;;;6.90;;
51800;SDS011;37855;53.204;6.568;2023-06-22T11:58:28;12.13;;;7.40;;
51800;SDS011;37855;53.204;6.568;2023-06-22T12:00:54;11.27;;;7.87;;
51800;SDS011;37855;53.204;6.568;2023-06-22T12:03:20;12.07;;;7.47;;
51800;SDS011;37855;53.204;6.568;2023-06-22T12:05:51;12.90;;;6.97;;
51800;SDS011;37855;53.204;6.568;2023-06-22T12:08:17;15.07;;;7.87;;
51800;SDS011;37855;53.204;6.568;2023-06-22T12:10:43;12.00;;;7.53;;
51800;SDS011;37855;53.204;6.568;2023-06-22T12:13:09;11.40;;;7.18;;
51800;SDS011;37855;53.204;6.568;2023-06-22T12:15:35;13.53;;;7.37;;
51800;SDS011;37855;53.204;6.568;2023-06-22T12:18:00;10.43;;;7.05;;
51800;SDS011;37855;53.204;6.568;2023-06-22T12:20:26;12.70;;;7.67;;
51800;SDS011;37855;53.204;6.568;2023-06-22T12:22:52;11.10;;;7.28;;
51800;SDS011;37855;53.204;6.568;2023-06-22T12:25:22;13.48;;;7.30;;
51800;SDS011;37855;53.204;6.568;2023-06-22T12:27:51;11.85;;;6.95;;
51800;SDS011;37855;53.204;6.568;2023-06-22T12:30:16;11.23;;;7.43;;
51800;SDS011;37855;53.204;6.568;2023-06-22T12:32:42;14.00;;;8.15;;
51800;SDS011;37855;53.204;6.568;2023-06-22T12:35:08;11.53;;;6.33;;
51800;SDS011;37855;53.204;6.568;2023-06-22T12:37:39;11.95;;;6.85;;
51800;SDS011;37855;53.204;6.568;2023-06-22T12:40:06;10.93;;;6.57;;
51800;SDS011;37855;53.204;6.568;2023-06-22T12:42:32;12.18;;;7.25;;
51800;SDS011;37855;53.204;6.568;2023-06-22T12:44:58;11.33;;;6.93;;
51800;SDS011;37855;53.204;6.568;2023-06-22T12:47:23;11.57;;;6.25;;
51800;SDS011;37855;53.204;6.568;2023-06-22T12:49:49;9.90;;;6.00;;
51800;SDS011;37855;53.204;6.568;2023-06-22T12:52:15;12.32;;;7.53;;
51800;SDS011;37855;53.204;6.568;2023-06-22T12:54:40;9.60;;;6.47;;
51800;SDS011;37855;53.204;6.568;2023-06-22T12:57:06;12.73;;;6.80;;
51800;SDS011;37855;53.204;6.568;2023-06-22T12:59:32;12.37;;;7.63;;
51800;SDS011;37855;53.204;6.568;2023-06-22T13:01:59;13.15;;;6.03;;
51800;SDS011;37855;53.204;6.568;2023-06-22T13:04:24;11.93;;;5.90;;
51800;SDS011;37855;53.204;6.568;2023-06-22T13:06:50;9.70;;;5.22;;
51800;SDS011;37855;53.204;6.568;2023-06-22T13:09:19;10.90;;;5.90;;
51800;SDS011;37855;53.204;6.568;2023-06-22T13:11:45;11.07;;;6.95;;
51800;SDS011;37855;53.204;6.568;2023-06-22T13:14:11;10.03;;;5.97;;
51800;SDS011;37855;53.204;6.568;2023-06-22T13:16:36;8.68;;;5.50;;
51800;SDS011;37855;53.204;6.568;2023-06-22T13:19:02;8.30;;;4.70;;
51800;SDS011;37855;53.204;6.568;2023-06-22T13:21:28;9.45;;;4.75;;
51800;SDS011;37855;53.204;6.568;2023-06-22T13:23:55;7.80;;;4.30;;
51800;SDS011;37855;53.204;6.568;2023-06-22T13:26:21;7.90;;;3.90;;
51800;SDS011;37855;53.204;6.568;2023-06-22T13:28:47;9.30;;;4.55;;
51800;SDS011;37855;53.204;6.568;2023-06-22T13:31:13;10.95;;;4.57;;
51800;SDS011;37855;53.204;6.568;2023-06-22T13:33:39;8.20;;;4.73;;
51800;SDS011;37855;53.204;6.568;2023-06-22T13:36:06;7.00;;;4.53;;
51800;SDS011;37855;53.204;6.568;2023-06-22T13:38:35;6.93;;;3.40;;
51800;SDS011;37855;53.204;6.568;2023-06-22T13:41:03;7.75;;;4.03;;
51800;SDS011;37855;53.204;6.568;2023-06-22T13:43:29;7.22;;;3.70;;
51800;SDS011;37855;53.204;6.568;2023-06-22T13:45:56;8.87;;;3.50;;
51800;SDS011;37855;53.204;6.568;2023-06-22T13:48:22;6.75;;;3.90;;
51800;SDS011;37855;53.204;6.568;2023-06-22T13:50:48;10.15;;;3.83;;
51800;SDS011;37855;53.204;6.568;2023-06-22T13:53:15;6.55;;;3.60;;
51800;SDS011;37855;53.204;6.568;2023-06-22T13:55:42;8.00;;;4.60;;
51800;SDS011;37855;53.204;6.568;2023-06-22T13:58:08;6.75;;;3.65;;
51800;SDS011;37855;53.204;6.568;2023-06-22T14:00:34;7.17;;;3.40;;
51800;SDS011;37855;53.204;6.568;2023-06-22T14:02:59;7.80;;;3.50;;
51800;SDS011;37855;53.204;6.568;2023-06-22T14:05:25;6.03;;;3.30;;
51800;SDS011;37855;53.204;6.568;2023-06-22T14:07:51;7.73;;;3.13;;
51800;SDS011;37855;53.204;6.568;2023-06-22T14:10:17;5.93;;;3.38;;
51800;SDS011;37855;53.204;6.568;2023-06-22T14:12:43;10.20;;;3.50;;
51800;SDS011;37855;53.204;6.568;2023-06-22T14:15:09;5.77;;;3.47;;
51800;SDS011;37855;53.204;6.568;2023-06-22T14:17:35;5.55;;;3.20;;
51800;SDS011;37855;53.204;6.568;2023-06-22T14:20:01;6.25;;;2.90;;
51800;SDS011;37855;53.204;6.568;2023-06-22T14:22:28;6.63;;;3.10;;
51800;SDS011;37855;53.204;6.568;2023-06-22T14:24:57;6.63;;;2.70;;
51800;SDS011;37855;53.204;6.568;2023-06-22T14:27:23;5.45;;;2.83;;
51800;SDS011;37855;53.204;6.568;2023-06-22T14:29:49;5.87;;;2.37;;
51800;SDS011;37855;53.204;6.568;2023-06-22T14:32:27;4.93;;;2.20;;
51800;SDS011;37855;53.204;6.568;2023-06-22T14:35:03;5.93;;;2.42;;